sensor_id;sensor_type;location;lat;lon;timestamp;P1;durP1;ratioP1;P2;durP2;ratioP2
70663;SDS011;58237;57.996;56.290;2023-01-04T10:37:31;54.67;;;17.65;;
70663;SDS011;58237;57.996;56.290;2023-01-04T10:39:58;33.83;;;13.65;;
70663;SDS011;58237;57.996;56.290;2023-01-04T10:42:31;38.53;;;12.80;;
70663;SDS011;58237;57.996;56.290;2023-01-04T10:45:01;25.55;;;13.88;;
70663;SDS011;58237;57.996;56.290;2023-01-04T10:52:42;27.15;;;9.75;;
70663;SDS011;58237;57.996;56.290;2023-01-04T10:55:11;21.75;;;9.13;;
70663;SDS011;58237;57.996;56.290;2023-01-04T10:57:39;36.05;;;13.75;;
70663;SDS011;58237;57.996;56.290;2023-01-04T11:00:10;39.38;;;13.60;;
70663;SDS011;58237;57.996;56.290;2023-01-04T11:02:48;39.33;;;13.38;;
70663;SDS011;58237;57.996;56.290;2023-01-04T11:07:44;34.00;;;10.60;;
70663;SDS011;58237;57.996;56.290;2023-01-04T11:10:13;33.72;;;12.48;;
70663;SDS011;58237;57.996;56.290;2023-01-04T11:12:39;20.48;;;8.85;;
70663;SDS011;58237;57.996;56.290;2023-01-04T11:15:05;27.55;;;11.10;;
70663;SDS011;58237;57.996;56.290;2023-01-04T11:17:30;39.25;;;15.27;;
70663;SDS011;58237;57.996;56.290;2023-01-04T11:19:56;41.13;;;17.80;;
70663;SDS011;58237;57.996;56.290;2023-01-04T11:24:51;46.72;;;19.00;;
70663;SDS011;58237;57.996;56.290;2023-01-04T11:27:19;37.53;;;18.35;;
70663;SDS011;58237;57.996;56.290;2023-01-04T11:29:57;35.95;;;12.93;;
70663;SDS011;58237;57.996;56.290;2023-01-04T11:32:38;33.00;;;11.35;;
70663;SDS011;58237;57.996;56.290;2023-01-04T11:35:06;33.00;;;12.70;;
70663;SDS011;58237;57.996;56.290;2023-01-04T11:37:38;32.38;;;12.63;;
70663;SDS011;58237;57.996;56.290;2023-01-04T11:42:42;37.90;;;13.20;;
70663;SDS011;58237;57.996;56.290;2023-01-04T11:45:17;36.78;;;13.15;;
70663;SDS011;58237;57.996;56.290;2023-01-04T11:47:46;31.40;;;11.70;;
70663;SDS011;58237;57.996;56.290;2023-01-04T11:50:22;26.63;;;10.25;;
70663;SDS011;58237;57.996;56.290;2023-01-04T11:52:57;16.15;;;6.28;;
70663;SDS011;58237;57.996;56.290;2023-01-04T11:55:23;29.17;;;12.02;;
70663;SDS011;58237;57.996;56.290;2023-01-04T12:00:33;28.75;;;9.90;;
70663;SDS011;58237;57.996;56.290;2023-01-04T12:03:11;19.65;;;9.65;;
70663;SDS011;58237;57.996;56.290;2023-01-04T12:05:37;23.17;;;8.77;;
70663;SDS011;58237;57.996;56.290;2023-01-04T12:08:02;20.60;;;10.50;;
70663;SDS011;58237;57.996;56.290;2023-01-04T12:10:27;17.85;;;8.73;;
70663;SDS011;58237;57.996;56.290;2023-01-04T12:12:53;17.75;;;9.40;;
70663;SDS011;58237;57.996;56.290;2023-01-04T12:15:22;30.17;;;12.73;;
70663;SDS011;58237;57.996;56.290;2023-01-04T12:17:52;16.97;;;8.80;;
70663;SDS011;58237;57.996;56.290;2023-01-04T12:20:19;21.40;;;7.55;;
70663;SDS011;58237;57.996;56.290;2023-01-04T12:22:45;18.83;;;5.93;;
70663;SDS011;58237;57.996;56.290;2023-01-04T12:27:48;21.40;;;8.57;;
70663;SDS011;58237;57.996;56.290;2023-01-04T12:30:33;19.27;;;6.88;;
70663;SDS011;58237;57.996;56.290;2023-01-04T12:32:59;16.92;;;7.35;;
70663;SDS011;58237;57.996;56.290;2023-01-04T12:35:57;11.63;;;5.65;;
70663;SDS011;58237;57.996;56.290;2023-01-04T12:38:55;13.98;;;6.25;;
70663;SDS011;58237;57.996;56.290;2023-01-04T12:41:07;15.30;;;6.00;;
70663;SDS011;58237;57.996;56.290;2023-01-04T12:43:36;21.20;;;10.02;;
70663;SDS011;58237;57.996;56.290;2023-01-04T12:48:46;21.08;;;9.98;;
70663;SDS011;58237;57.996;56.290;2023-01-04T12:51:21;22.20;;;10.40;;
70663;SDS011;58237;57.996;56.290;2023-01-04T12:54:02;19.08;;;7.32;;
70663;SDS011;58237;57.996;56.290;2023-01-04T12:57:30;21.08;;;6.82;;
70663;SDS011;58237;57.996;56.290;2023-01-04T12:59:36;17.40;;;7.57;;
70663;SDS011;58237;57.996;56.290;2023-01-04T13:02:16;15.43;;;9.15;;
70663;SDS011;58237;57.996;56.290;2023-01-04T13:04:41;18.30;;;8.48;;
70663;SDS011;58237;57.996;56.290;2023-01-04T13:07:09;17.73;;;7.20;;
70663;SDS011;58237;57.996;56.290;2023-01-04T13:09:38;16.05;;;6.28;;
70663;SDS011;58237;57.996;56.290;2023-01-04T13:14:38;17.95;;;9.05;;
70663;SDS011;58237;57.996;56.290;2023-01-04T13:19:32;20.52;;;8.27;;
70663;SDS011;58237;57.996;56.290;2023-01-04T13:22:01;18.65;;;8.57;;
70663;SDS011;58237;57.996;56.290;2023-01-04T13:24:33;10.98;;;5.07;;
70663;SDS011;58237;57.996;56.290;2023-01-04T13:27:11;17.65;;;7.40;;
70663;SDS011;58237;57.996;56.290;2023-01-04T13:29:38;10.52;;;5.47;;
70663;SDS011;58237;57.996;56.290;2023-01-04T13:32:07;10.70;;;5.80;;
70663;SDS011;58237;57.996;56.290;2023-01-04T13:37:05;15.40;;;6.47;;
70663;SDS011;58237;57.996;56.290;2023-01-04T13:39:31;14.23;;;7.07;;
70663;SDS011;58237;57.996;56.290;2023-01-04T13:41:57;14.57;;;6.50;;
70663;SDS011;58237;57.996;56.290;2023-01-04T13:44:35;13.93;;;6.95;;
70663;SDS011;58237;57.996;56.290;2023-01-04T13:47:04;22.23;;;6.55;;
70663;SDS011;58237;57.996;56.290;2023-01-04T13:49:31;18.50;;;6.93;;
70663;SDS011;58237;57.996;56.290;2023-01-04T13:52:12;16.25;;;8.13;;
70663;SDS011;58237;57.996;56.290;2023-01-04T13:54:37;18.17;;;7.32;;
70663;SDS011;58237;57.996;56.290;2023-01-04T13:57:08;17.90;;;7.65;;
70663;SDS011;58237;57.996;56.290;2023-01-04T13:59:34;28.50;;;10.30;;
70663;SDS011;58237;57.996;56.290;2023-01-04T14:02:00;12.57;;;6.78;;
70663;SDS011;58237;57.996;56.290;2023-01-04T14:04:26;18.50;;;7.57;;
70663;SDS011;58237;57.996;56.290;2023-01-04T14:06:53;19.15;;;7.70;;
70663;SDS011;58237;57.996;56.290;2023-01-04T14:09:23;17.92;;;6.95;;
70663;SDS011;58237;57.996;56.290;2023-01-04T14:14:19;19.88;;;7.20;;
70663;SDS011;58237;57.996;56.290;2023-01-04T14:16:46;16.85;;;5.78;;
70663;SDS011;58237;57.996;56.290;2023-01-04T14:19:33;18.60;;;6.88;;
70663;SDS011;58237;57.996;56.290;2023-01-04T14:22:16;17.00;;;7.68;;
70663;SDS011;58237;57.996;56.290;2023-01-04T14:24:42;22.20;;;9.88;;
70663;SDS011;58237;57.996;56.290;2023-01-04T14:29:51;12.57;;;4.50;;
70663;SDS011;58237;57.996;56.290;2023-01-04T14:32:16;9.90;;;4.18;;
70663;SDS011;58237;57.996;56.290;2023-01-04T14:34:42;14.75;;;6.40;;
70663;SDS011;58237;57.996;56.290;2023-01-04T14:37:08;21.73;;;9.38;;
70663;SDS011;58237;57.996;56.290;2023-01-04T14:39:33;12.70;;;5.82;;
70663;SDS011;58237;57.996;56.290;2023-01-04T14:41:59;13.85;;;5.72;;
70663;SDS011;58237;57.996;56.290;2023-01-04T14:44:26;14.85;;;6.45;;
70663;SDS011;58237;57.996;56.290;2023-01-04T14:46:52;20.33;;;8.07;;
70663;SDS011;58237;57.996;56.290;2023-01-04T14:49:18;19.88;;;7.93;;
70663;SDS011;58237;57.996;56.290;2023-01-04T14:54:10;8.10;;;3.40;;
70663;SDS011;58237;57.996;56.290;2023-01-04T14:56:35;18.58;;;6.32;;
70663;SDS011;58237;57.996;56.290;2023-01-04T14:59:01;12.00;;;5.28;;
70663;SDS011;58237;57.996;56.290;2023-01-04T15:01:26;13.48;;;6.28;;
70663;SDS011;58237;57.996;56.290;2023-01-04T15:03:51;11.75;;;5.85;;
70663;SDS011;58237;57.996;56.290;2023-01-04T15:06:17;21.25;;;8.80;;
70663;SDS011;58237;57.996;56.290;2023-01-04T15:08:42;12.23;;;7.45;;
70663;SDS011;58237;57.996;56.290;2023-01-04T15:11:08;23.63;;;8.32;;
70663;SDS011;58237;57.996;56.290;2023-01-04T15:13:34;14.18;;;5.50;;
70663;SDS011;58237;57.996;56.290;2023-01-04T15:15:59;21.23;;;7.70;;
70663;SDS011;58237;57.996;56.290;2023-01-04T15:18:25;15.10;;;5.55;;
70663;SDS011;58237;57.996;56.290;2023-01-04T15:20:50;18.48;;;6.82;;
70663;SDS011;58237;57.996;56.290;2023-01-04T15:23:15;9.63;;;5.57;;
70663;SDS011;58237;57.996;56.290;2023-01-04T15:25:41;29.98;;;7.72;;
70663;SDS011;58237;57.996;56.290;2023-01-04T15:28:06;14.90;;;6.30;;
70663;SDS011;58237;57.996;56.290;2023-01-04T15:30:32;9.23;;;4.78;;
70663;SDS011;58237;57.996;56.290;2023-01-04T15:32:57;9.00;;;4.97;;
70663;SDS011;58237;57.996;56.290;2023-01-04T15:35:23;29.88;;;10.32;;
70663;SDS011;58237;57.996;56.290;2023-01-04T15:37:48;21.98;;;9.45;;
70663;SDS011;58237;57.996;56.290;2023-01-04T15:40:14;11.32;;;5.13;;
70663;SDS011;58237;57.996;56.290;2023-01-04T15:42:40;12.10;;;5.30;;
70663;SDS011;58237;57.996;56.290;2023-01-04T15:45:06;14.15;;;4.50;;
70663;SDS011;58237;57.996;56.290;2023-01-04T15:47:31;18.20;;;5.05;;
70663;SDS011;58237;57.996;56.290;2023-01-04T15:49:57;18.25;;;6.43;;
70663;SDS011;58237;57.996;56.290;2023-01-04T15:52:22;19.65;;;7.30;;
70663;SDS011;58237;57.996;56.290;2023-01-04T15:54:48;18.63;;;5.43;;
70663;SDS011;58237;57.996;56.290;2023-01-04T15:57:13;17.85;;;6.10;;
70663;SDS011;58237;57.996;56.290;2023-01-04T15:59:39;19.58;;;6.35;;
70663;SDS011;58237;57.996;56.290;2023-01-04T16:02:04;19.35;;;7.07;;
70663;SDS011;58237;57.996;56.290;2023-01-04T16:04:30;8.85;;;4.28;;
70663;SDS011;58237;57.996;56.290;2023-01-04T16:06:55;20.23;;;5.88;;
70663;SDS011;58237;57.996;56.290;2023-01-04T16:09:20;11.65;;;3.83;;
70663;SDS011;58237;57.996;56.290;2023-01-04T16:11:46;10.57;;;3.22;;
70663;SDS011;58237;57.996;56.290;2023-01-04T16:14:11;20.67;;;8.85;;
70663;SDS011;58237;57.996;56.290;2023-01-04T16:16:36;25.48;;;10.05;;
70663;SDS011;58237;57.996;56.290;2023-01-04T16:19:02;29.27;;;11.00;;
70663;SDS011;58237;57.996;56.290;2023-01-04T16:21:27;18.63;;;9.32;;
70663;SDS011;58237;57.996;56.290;2023-01-04T16:23:56;23.52;;;12.68;;
70663;SDS011;58237;57.996;56.290;2023-01-04T16:26:22;30.70;;;13.48;;
70663;SDS011;58237;57.996;56.290;2023-01-04T16:28:51;36.47;;;13.43;;
70663;SDS011;58237;57.996;56.290;2023-01-04T16:31:17;40.67;;;13.50;;
70663;SDS011;58237;57.996;56.290;2023-01-04T16:33:42;32.05;;;11.93;;
70663;SDS011;58237;57.996;56.290;2023-01-04T16:36:09;36.13;;;13.32;;
70663;SDS011;58237;57.996;56.290;2023-01-04T16:38:36;24.65;;;9.50;;
70663;SDS011;58237;57.996;56.290;2023-01-04T16:41:02;28.23;;;12.65;;
70663;SDS011;58237;57.996;56.290;2023-01-04T16:43:28;25.67;;;9.30;;
70663;SDS011;58237;57.996;56.290;2023-01-04T16:46:12;17.35;;;8.00;;
70663;SDS011;58237;57.996;56.290;2023-01-04T16:48:42;23.35;;;8.60;;
70663;SDS011;58237;57.996;56.290;2023-01-04T16:51:07;21.15;;;10.82;;
70663;SDS011;58237;57.996;56.290;2023-01-04T16:53:35;35.17;;;11.90;;
70663;SDS011;58237;57.996;56.290;2023-01-04T16:56:02;17.88;;;8.43;;
70663;SDS011;58237;57.996;56.290;2023-01-04T16:58:28;25.13;;;11.68;;
70663;SDS011;58237;57.996;56.290;2023-01-04T17:00:53;26.15;;;12.02;;
70663;SDS011;58237;57.996;56.290;2023-01-04T17:03:18;48.92;;;16.52;;
70663;SDS011;58237;57.996;56.290;2023-01-04T17:05:44;34.63;;;15.63;;
70663;SDS011;58237;57.996;56.290;2023-01-04T17:08:09;41.40;;;15.07;;
70663;SDS011;58237;57.996;56.290;2023-01-04T17:10:35;29.98;;;13.90;;
70663;SDS011;58237;57.996;56.290;2023-01-04T17:13:00;40.17;;;15.82;;
70663;SDS011;58237;57.996;56.290;2023-01-04T17:15:26;25.90;;;14.20;;
70663;SDS011;58237;57.996;56.290;2023-01-04T17:17:51;41.22;;;14.05;;
70663;SDS011;58237;57.996;56.290;2023-01-04T17:20:17;44.80;;;16.42;;
70663;SDS011;58237;57.996;56.290;2023-01-04T17:22:42;30.88;;;11.18;;
70663;SDS011;58237;57.996;56.290;2023-01-04T17:25:07;36.47;;;14.52;;
70663;SDS011;58237;57.996;56.290;2023-01-04T17:27:33;40.83;;;14.10;;
70663;SDS011;58237;57.996;56.290;2023-01-04T17:29:58;42.00;;;13.73;;
70663;SDS011;58237;57.996;56.290;2023-01-04T17:32:24;28.33;;;11.75;;
70663;SDS011;58237;57.996;56.290;2023-01-04T17:34:49;20.90;;;9.10;;
70663;SDS011;58237;57.996;56.290;2023-01-04T17:37:14;16.63;;;8.88;;
70663;SDS011;58237;57.996;56.290;2023-01-04T17:39:40;25.70;;;10.65;;
70663;SDS011;58237;57.996;56.290;2023-01-04T17:42:05;18.67;;;7.32;;
70663;SDS011;58237;57.996;56.290;2023-01-04T17:44:30;16.05;;;8.38;;
70663;SDS011;58237;57.996;56.290;2023-01-04T17:46:56;22.30;;;8.00;;
70663;SDS011;58237;57.996;56.290;2023-01-04T17:49:21;22.02;;;8.95;;
70663;SDS011;58237;57.996;56.290;2023-01-04T17:51:46;19.77;;;9.30;;
70663;SDS011;58237;57.996;56.290;2023-01-04T17:54:12;15.63;;;6.82;;
70663;SDS011;58237;57.996;56.290;2023-01-04T17:56:37;17.83;;;6.57;;
70663;SDS011;58237;57.996;56.290;2023-01-04T17:59:03;20.00;;;8.50;;
70663;SDS011;58237;57.996;56.290;2023-01-04T18:01:29;17.70;;;6.53;;
70663;SDS011;58237;57.996;56.290;2023-01-04T18:03:55;19.58;;;6.68;;
70663;SDS011;58237;57.996;56.290;2023-01-04T18:06:22;13.35;;;5.55;;
70663;SDS011;58237;57.996;56.290;2023-01-04T18:08:47;12.50;;;5.65;;
70663;SDS011;58237;57.996;56.290;2023-01-04T18:11:13;18.77;;;6.00;;
70663;SDS011;58237;57.996;56.290;2023-01-04T18:13:42;10.00;;;5.10;;
70663;SDS011;58237;57.996;56.290;2023-01-04T18:16:17;10.38;;;4.75;;
70663;SDS011;58237;57.996;56.290;2023-01-04T18:18:43;13.25;;;6.63;;
70663;SDS011;58237;57.996;56.290;2023-01-04T18:21:09;19.40;;;8.25;;
70663;SDS011;58237;57.996;56.290;2023-01-04T18:23:35;14.07;;;6.32;;
70663;SDS011;58237;57.996;56.290;2023-01-04T18:26:01;11.80;;;4.93;;
70663;SDS011;58237;57.996;56.290;2023-01-04T18:28:26;14.32;;;5.00;;
70663;SDS011;58237;57.996;56.290;2023-01-04T18:30:51;15.38;;;5.78;;
70663;SDS011;58237;57.996;56.290;2023-01-04T18:33:16;20.67;;;8.82;;
70663;SDS011;58237;57.996;56.290;2023-01-04T18:35:42;16.15;;;7.55;;
70663;SDS011;58237;57.996;56.290;2023-01-04T18:38:07;12.77;;;5.25;;
70663;SDS011;58237;57.996;56.290;2023-01-04T18:40:32;15.68;;;5.63;;
70663;SDS011;58237;57.996;56.290;2023-01-04T18:42:58;12.30;;;5.65;;
70663;SDS011;58237;57.996;56.290;2023-01-04T18:45:23;19.55;;;6.70;;
70663;SDS011;58237;57.996;56.290;2023-01-04T18:47:48;14.02;;;5.55;;
70663;SDS011;58237;57.996;56.290;2023-01-04T18:50:14;16.25;;;8.27;;
70663;SDS011;58237;57.996;56.290;2023-01-04T18:52:40;16.38;;;6.60;;
70663;SDS011;58237;57.996;56.290;2023-01-04T18:55:05;23.48;;;8.90;;
70663;SDS011;58237;57.996;56.290;2023-01-04T18:57:31;23.35;;;8.77;;
70663;SDS011;58237;57.996;56.290;2023-01-04T18:59:56;23.73;;;8.18;;
70663;SDS011;58237;57.996;56.290;2023-01-04T19:02:22;15.25;;;5.80;;
70663;SDS011;58237;57.996;56.290;2023-01-04T19:04:47;21.33;;;7.15;;
70663;SDS011;58237;57.996;56.290;2023-01-04T19:07:13;12.20;;;4.70;;
70663;SDS011;58237;57.996;56.290;2023-01-04T19:09:38;15.43;;;5.10;;
70663;SDS011;58237;57.996;56.290;2023-01-04T19:12:03;15.35;;;6.38;;
70663;SDS011;58237;57.996;56.290;2023-01-04T19:14:29;21.60;;;6.55;;
70663;SDS011;58237;57.996;56.290;2023-01-04T19:16:54;15.38;;;6.03;;
70663;SDS011;58237;57.996;56.290;2023-01-04T19:19:19;31.23;;;9.32;;
70663;SDS011;58237;57.996;56.290;2023-01-04T19:21:45;24.13;;;8.75;;
70663;SDS011;58237;57.996;56.290;2023-01-04T19:24:10;20.90;;;8.25;;
70663;SDS011;58237;57.996;56.290;2023-01-04T19:26:36;15.25;;;6.13;;
70663;SDS011;58237;57.996;56.290;2023-01-04T19:29:02;14.50;;;5.93;;
70663;SDS011;58237;57.996;56.290;2023-01-04T19:31:27;14.18;;;6.18;;
70663;SDS011;58237;57.996;56.290;2023-01-04T19:33:52;26.25;;;7.28;;
70663;SDS011;58237;57.996;56.290;2023-01-04T19:36:18;17.40;;;7.80;;
70663;SDS011;58237;57.996;56.290;2023-01-04T19:38:43;19.55;;;7.80;;
70663;SDS011;58237;57.996;56.290;2023-01-04T19:41:16;16.00;;;6.72;;
70663;SDS011;58237;57.996;56.290;2023-01-04T19:43:41;12.88;;;7.13;;
70663;SDS011;58237;57.996;56.290;2023-01-04T19:46:07;18.70;;;6.75;;
70663;SDS011;58237;57.996;56.290;2023-01-04T19:48:33;15.48;;;6.45;;
70663;SDS011;58237;57.996;56.290;2023-01-04T19:51:02;16.40;;;7.05;;
70663;SDS011;58237;57.996;56.290;2023-01-04T19:53:27;18.98;;;6.85;;
70663;SDS011;58237;57.996;56.290;2023-01-04T19:55:56;15.35;;;5.90;;
70663;SDS011;58237;57.996;56.290;2023-01-04T19:58:21;8.93;;;3.05;;
70663;SDS011;58237;57.996;56.290;2023-01-04T20:00:47;29.50;;;7.15;;
70663;SDS011;58237;57.996;56.290;2023-01-04T20:03:12;17.48;;;6.32;;
70663;SDS011;58237;57.996;56.290;2023-01-04T20:05:38;24.23;;;7.28;;
70663;SDS011;58237;57.996;56.290;2023-01-04T20:08:03;12.32;;;5.00;;
70663;SDS011;58237;57.996;56.290;2023-01-04T20:10:28;10.07;;;3.80;;
70663;SDS011;58237;57.996;56.290;2023-01-04T20:12:54;12.50;;;4.72;;
70663;SDS011;58237;57.996;56.290;2023-01-04T20:15:28;8.70;;;3.55;;
70663;SDS011;58237;57.996;56.290;2023-01-04T20:17:54;13.80;;;4.75;;
70663;SDS011;58237;57.996;56.290;2023-01-04T20:20:19;10.70;;;4.32;;
70663;SDS011;58237;57.996;56.290;2023-01-04T20:22:44;12.68;;;5.32;;
70663;SDS011;58237;57.996;56.290;2023-01-04T20:25:09;10.30;;;4.03;;
70663;SDS011;58237;57.996;56.290;2023-01-04T20:27:35;12.02;;;3.90;;
70663;SDS011;58237;57.996;56.290;2023-01-04T20:30:00;11.40;;;4.10;;
70663;SDS011;58237;57.996;56.290;2023-01-04T20:32:26;10.80;;;3.53;;
70663;SDS011;58237;57.996;56.290;2023-01-04T20:34:51;9.43;;;2.42;;
70663;SDS011;58237;57.996;56.290;2023-01-04T20:37:16;6.47;;;3.08;;
70663;SDS011;58237;57.996;56.290;2023-01-04T20:39:42;8.60;;;3.65;;
70663;SDS011;58237;57.996;56.290;2023-01-04T20:42:07;11.85;;;4.57;;
70663;SDS011;58237;57.996;56.290;2023-01-04T20:44:32;9.90;;;3.45;;
70663;SDS011;58237;57.996;56.290;2023-01-04T20:46:58;10.20;;;2.97;;
70663;SDS011;58237;57.996;56.290;2023-01-04T20:49:23;6.00;;;2.78;;
70663;SDS011;58237;57.996;56.290;2023-01-04T20:51:48;12.32;;;4.53;;
70663;SDS011;58237;57.996;56.290;2023-01-04T20:54:13;14.95;;;5.40;;
70663;SDS011;58237;57.996;56.290;2023-01-04T20:56:39;17.08;;;5.07;;
70663;SDS011;58237;57.996;56.290;2023-01-04T20:59:04;7.90;;;3.30;;
70663;SDS011;58237;57.996;56.290;2023-01-04T21:01:30;11.82;;;4.10;;
70663;SDS011;58237;57.996;56.290;2023-01-04T21:03:55;8.55;;;3.97;;
70663;SDS011;58237;57.996;56.290;2023-01-04T21:06:20;22.60;;;6.72;;
70663;SDS011;58237;57.996;56.290;2023-01-04T21:08:46;16.98;;;5.25;;
70663;SDS011;58237;57.996;56.290;2023-01-04T21:11:11;8.35;;;2.95;;
70663;SDS011;58237;57.996;56.290;2023-01-04T21:13:36;9.57;;;3.00;;
70663;SDS011;58237;57.996;56.290;2023-01-04T21:16:02;11.75;;;3.83;;
70663;SDS011;58237;57.996;56.290;2023-01-04T21:18:27;16.05;;;4.32;;
70663;SDS011;58237;57.996;56.290;2023-01-04T21:20:53;8.00;;;3.35;;
70663;SDS011;58237;57.996;56.290;2023-01-04T21:23:20;16.48;;;5.47;;
70663;SDS011;58237;57.996;56.290;2023-01-04T21:25:46;9.75;;;3.63;;
70663;SDS011;58237;57.996;56.290;2023-01-04T21:28:12;8.70;;;4.03;;
70663;SDS011;58237;57.996;56.290;2023-01-04T21:30:38;9.50;;;3.63;;
70663;SDS011;58237;57.996;56.290;2023-01-04T21:33:03;7.05;;;2.92;;
70663;SDS011;58237;57.996;56.290;2023-01-04T21:35:28;8.07;;;2.58;;
70663;SDS011;58237;57.996;56.290;2023-01-04T21:37:54;18.65;;;5.03;;
70663;SDS011;58237;57.996;56.290;2023-01-04T21:40:19;12.73;;;5.50;;
70663;SDS011;58237;57.996;56.290;2023-01-04T21:42:44;12.25;;;3.15;;
70663;SDS011;58237;57.996;56.290;2023-01-04T21:45:10;11.77;;;4.60;;
70663;SDS011;58237;57.996;56.290;2023-01-04T21:47:35;6.18;;;2.33;;
70663;SDS011;58237;57.996;56.290;2023-01-04T21:50:00;11.45;;;3.80;;
70663;SDS011;58237;57.996;56.290;2023-01-04T21:52:26;11.43;;;2.78;;
70663;SDS011;58237;57.996;56.290;2023-01-04T21:54:51;7.43;;;2.97;;
70663;SDS011;58237;57.996;56.290;2023-01-04T21:57:16;6.30;;;2.50;;
70663;SDS011;58237;57.996;56.290;2023-01-04T21:59:42;7.45;;;2.92;;
70663;SDS011;58237;57.996;56.290;2023-01-04T22:02:09;5.45;;;2.65;;
70663;SDS011;58237;57.996;56.290;2023-01-04T22:04:36;9.60;;;3.00;;
70663;SDS011;58237;57.996;56.290;2023-01-04T22:07:01;6.40;;;2.20;;
70663;SDS011;58237;57.996;56.290;2023-01-04T22:09:26;6.05;;;2.40;;
70663;SDS011;58237;57.996;56.290;2023-01-04T22:11:52;12.77;;;4.20;;
70663;SDS011;58237;57.996;56.290;2023-01-04T22:14:17;10.95;;;3.50;;
70663;SDS011;58237;57.996;56.290;2023-01-04T22:16:43;11.38;;;2.42;;
70663;SDS011;58237;57.996;56.290;2023-01-04T22:19:10;10.70;;;2.38;;
70663;SDS011;58237;57.996;56.290;2023-01-04T22:21:35;8.77;;;2.20;;
70663;SDS011;58237;57.996;56.290;2023-01-04T22:24:01;6.95;;;2.78;;
70663;SDS011;58237;57.996;56.290;2023-01-04T22:26:26;9.13;;;4.75;;
70663;SDS011;58237;57.996;56.290;2023-01-04T22:28:51;8.63;;;3.22;;
70663;SDS011;58237;57.996;56.290;2023-01-04T22:31:17;13.88;;;3.97;;
70663;SDS011;58237;57.996;56.290;2023-01-04T22:33:42;8.77;;;3.88;;
70663;SDS011;58237;57.996;56.290;2023-01-04T22:36:08;11.05;;;5.18;;
70663;SDS011;58237;57.996;56.290;2023-01-04T22:38:35;13.00;;;3.95;;
70663;SDS011;58237;57.996;56.290;2023-01-04T22:41:05;15.68;;;5.90;;
70663;SDS011;58237;57.996;56.290;2023-01-04T22:43:30;7.65;;;2.55;;
70663;SDS011;58237;57.996;56.290;2023-01-04T22:45:59;5.65;;;2.65;;
70663;SDS011;58237;57.996;56.290;2023-01-04T22:48:25;8.60;;;3.40;;
70663;SDS011;58237;57.996;56.290;2023-01-04T22:50:50;8.30;;;2.72;;
70663;SDS011;58237;57.996;56.290;2023-01-04T22:53:16;23.40;;;4.45;;
70663;SDS011;58237;57.996;56.290;2023-01-04T22:55:41;8.85;;;3.42;;
70663;SDS011;58237;57.996;56.290;2023-01-04T22:58:06;3.90;;;1.85;;
70663;SDS011;58237;57.996;56.290;2023-01-04T23:00:32;11.05;;;4.30;;
70663;SDS011;58237;57.996;56.290;2023-01-04T23:02:57;10.10;;;3.45;;
70663;SDS011;58237;57.996;56.290;2023-01-04T23:05:22;8.57;;;3.00;;
70663;SDS011;58237;57.996;56.290;2023-01-04T23:07:47;17.05;;;3.05;;
70663;SDS011;58237;57.996;56.290;2023-01-04T23:10:13;5.88;;;1.98;;
70663;SDS011;58237;57.996;56.290;2023-01-04T23:12:38;6.05;;;2.28;;
70663;SDS011;58237;57.996;56.290;2023-01-04T23:15:04;11.50;;;4.22;;
70663;SDS011;58237;57.996;56.290;2023-01-04T23:17:29;13.68;;;3.83;;
70663;SDS011;58237;57.996;56.290;2023-01-04T23:19:54;4.68;;;1.85;;
70663;SDS011;58237;57.996;56.290;2023-01-04T23:22:20;9.30;;;3.92;;
70663;SDS011;58237;57.996;56.290;2023-01-04T23:24:45;8.68;;;3.60;;
70663;SDS011;58237;57.996;56.290;2023-01-04T23:27:12;6.20;;;2.35;;
70663;SDS011;58237;57.996;56.290;2023-01-04T23:29:37;5.65;;;2.40;;
70663;SDS011;58237;57.996;56.290;2023-01-04T23:32:03;5.28;;;2.83;;
70663;SDS011;58237;57.996;56.290;2023-01-04T23:34:28;7.90;;;3.53;;
70663;SDS011;58237;57.996;56.290;2023-01-04T23:36:54;3.95;;;1.70;;
70663;SDS011;58237;57.996;56.290;2023-01-04T23:39:19;10.82;;;3.03;;
70663;SDS011;58237;57.996;56.290;2023-01-04T23:41:44;7.72;;;3.85;;
70663;SDS011;58237;57.996;56.290;2023-01-04T23:44:23;4.70;;;1.92;;
70663;SDS011;58237;57.996;56.290;2023-01-04T23:46:51;4.65;;;2.53;;
70663;SDS011;58237;57.996;56.290;2023-01-04T23:49:16;10.98;;;3.42;;
70663;SDS011;58237;57.996;56.290;2023-01-04T23:51:42;10.35;;;3.53;;
70663;SDS011;58237;57.996;56.290;2023-01-04T23:54:07;6.50;;;2.28;;
70663;SDS011;58237;57.996;56.290;2023-01-04T23:56:32;15.73;;;4.18;;
70663;SDS011;58237;57.996;56.290;2023-01-04T23:58:58;4.93;;;2.50;;
